createdAt,value
2022-09-15T00:02:10.410Z,6.20
2022-09-15T00:07:13.847Z,6.00
2022-09-15T00:12:17.315Z,5.60
2022-09-15T00:17:45.805Z,6.30
2022-09-15T00:23:00.123Z,5.50
2022-09-15T00:28:32.648Z,6.10
2022-09-15T00:33:49.857Z,5.30
2022-09-15T00:38:53.712Z,5.00
2022-09-15T00:44:08.864Z,5.70
2022-09-15T00:49:31.721Z,5.70
2022-09-15T00:55:25.815Z,6.20
2022-09-15T01:00:32.308Z,5.10
2022-09-15T01:05:43.943Z,5.10
2022-09-15T01:10:47.387Z,4.80
2022-09-15T01:21:58.754Z,5.90
2022-09-15T01:27:37.729Z,5.80
2022-09-15T01:33:24.606Z,4.90
2022-09-15T01:39:06.475Z,5.70
2022-09-15T01:44:26.935Z,5.80
2022-09-15T01:50:49.896Z,6.70
2022-09-15T01:56:01.272Z,5.40
2022-09-15T02:01:40.754Z,5.10
2022-09-15T02:06:52.324Z,5.20
2022-09-15T02:12:41.961Z,4.90
2022-09-15T02:17:54.353Z,5.40
2022-09-15T02:23:16.311Z,4.60
2022-09-15T02:28:45.600Z,5.10
2022-09-15T02:34:19.608Z,5.70
2022-09-15T02:39:38.172Z,5.30
2022-09-15T02:44:50.054Z,5.10
2022-09-15T02:50:02.409Z,4.60
2022-09-15T02:55:29.192Z,5.70
2022-09-15T03:00:32.649Z,5.70
2022-09-15T03:05:43.690Z,6.70
2022-09-15T03:10:49.451Z,6.30
2022-09-15T03:16:01.187Z,5.90
2022-09-15T03:21:08.584Z,6.30
2022-09-15T03:26:21.072Z,6.70
2022-09-15T03:31:24.532Z,6.70
2022-09-15T03:36:28.011Z,8.00
2022-09-15T03:41:37.514Z,8.40
2022-09-15T03:46:40.853Z,7.90
2022-09-15T03:51:53.685Z,8.70
2022-09-15T03:57:02.670Z,7.90
2022-09-15T04:02:06.183Z,9.10
2022-09-15T04:07:09.568Z,8.00
2022-09-15T04:12:15.859Z,8.80
2022-09-15T04:17:23.150Z,9.00
2022-09-15T04:22:45.206Z,9.30
2022-09-15T04:27:50.975Z,9.00
2022-09-15T04:32:57.145Z,9.40
2022-09-15T04:38:25.092Z,10.30
2022-09-15T04:43:33.689Z,9.70
2022-09-15T04:48:48.208Z,8.90
2022-09-15T04:53:52.300Z,7.90
2022-09-15T04:59:13.684Z,7.40
2022-09-15T05:04:17.204Z,8.30
2022-09-15T05:09:34.658Z,9.00
2022-09-15T05:14:38.186Z,9.30
2022-09-15T05:19:41.825Z,7.90
2022-09-15T05:24:45.108Z,9.80
2022-09-15T05:29:48.491Z,9.00
2022-09-15T05:35:09.115Z,7.50
2022-09-15T05:40:24.862Z,7.80
2022-09-15T05:45:36.226Z,7.60
2022-09-15T05:50:49.785Z,7.60
2022-09-15T05:56:03.580Z,7.60
2022-09-15T06:01:42.430Z,8.00
2022-09-15T06:06:45.807Z,9.80
2022-09-15T06:11:49.646Z,10.40
2022-09-15T06:16:55.875Z,10.60
2022-09-15T06:22:13.702Z,8.80
2022-09-15T06:27:19.271Z,8.50
2022-09-15T06:32:22.385Z,6.60
2022-09-15T06:37:36.324Z,4.50
2022-09-15T06:42:39.906Z,4.00
2022-09-15T06:47:43.390Z,3.30
2022-09-15T06:52:46.576Z,3.70
2022-09-15T06:57:50.890Z,3.70
2022-09-15T07:03:03.573Z,3.50
2022-09-15T07:08:09.647Z,3.80
2022-09-15T07:13:16.251Z,3.40
2022-09-15T07:18:19.988Z,3.80
2022-09-15T07:23:28.372Z,4.10
2022-09-15T07:28:34.702Z,3.00
2022-09-15T07:33:38.456Z,3.00
2022-09-15T07:38:49.481Z,2.50
2022-09-15T07:44:00.572Z,2.70
2022-09-15T07:49:06.636Z,2.70
2022-09-15T07:54:09.914Z,1.90
2022-09-15T07:59:13.093Z,1.70
2022-09-15T08:04:19.585Z,1.40
2022-09-15T08:09:25.662Z,1.90
2022-09-15T08:14:31.885Z,1.60
2022-09-15T08:19:36.080Z,1.40
2022-09-15T08:24:45.088Z,1.60
2022-09-15T08:29:49.015Z,1.50
2022-09-15T08:34:57.747Z,1.10
2022-09-15T08:40:00.877Z,1.40
2022-09-15T08:45:22.132Z,1.40
2022-09-15T08:50:35.038Z,1.00
2022-09-15T08:56:10.188Z,0.90
2022-09-15T09:01:49.870Z,1.10
2022-09-15T09:07:01.896Z,0.90
2022-09-15T09:12:49.678Z,1.30
2022-09-15T09:18:07.580Z,1.10
2022-09-15T09:23:20.713Z,1.20
2022-09-15T09:28:40.035Z,1.30
2022-09-15T09:33:58.569Z,1.00
2022-09-15T09:39:05.725Z,1.00
2022-09-15T09:44:15.538Z,1.10
2022-09-15T09:49:24.971Z,0.90
2022-09-15T09:54:35.842Z,1.10
2022-09-15T09:59:40.789Z,1.00
2022-09-15T10:05:10.816Z,1.20
2022-09-15T10:10:32.453Z,0.90
2022-09-15T10:15:41.187Z,1.20
2022-09-15T10:20:55.793Z,1.00
2022-09-15T10:26:34.590Z,0.80
2022-09-15T10:31:47.867Z,0.80
2022-09-15T10:37:31.780Z,1.50
2022-09-15T10:43:47.184Z,1.20
2022-09-15T10:49:05.973Z,0.90
2022-09-15T10:54:49.939Z,15.50
2022-09-15T11:00:22.535Z,3.20
2022-09-15T11:05:58.589Z,1.50
2022-09-15T11:11:23.729Z,0.90
2022-09-15T11:17:17.527Z,1.00
2022-09-15T11:23:05.670Z,0.90
2022-09-15T11:28:51.477Z,0.90
2022-09-15T11:34:25.443Z,1.10
2022-09-15T11:39:47.545Z,1.10
2022-09-15T11:44:53.766Z,1.10
2022-09-15T11:50:24.406Z,0.70
2022-09-15T11:55:32.343Z,1.00
2022-09-15T12:00:48.483Z,1.10
2022-09-15T12:06:00.690Z,0.90
2022-09-15T12:11:19.951Z,0.90
2022-09-15T12:16:25.610Z,0.70
2022-09-15T12:21:50.252Z,1.10
2022-09-15T12:27:10.286Z,0.80
2022-09-15T12:32:25.261Z,0.70
2022-09-15T12:37:44.900Z,0.70
2022-09-15T12:42:48.239Z,1.20
2022-09-15T12:48:01.451Z,1.10
2022-09-15T12:53:21.729Z,0.80
2022-09-15T12:58:40.089Z,0.80
2022-09-15T13:03:43.203Z,0.70
2022-09-15T13:09:01.866Z,0.70
2022-09-15T13:14:07.664Z,0.80
2022-09-15T13:19:22.597Z,1.10
2022-09-15T13:24:42.388Z,0.80
2022-09-15T13:30:29.863Z,0.70
2022-09-15T13:36:04.244Z,0.90
2022-09-15T13:41:33.315Z,1.00
2022-09-15T13:47:01.057Z,0.60
2022-09-15T13:52:25.066Z,0.80
2022-09-15T14:03:01.724Z,0.80
2022-09-15T14:08:41.897Z,0.80
2022-09-15T14:13:53.928Z,0.60
2022-09-15T14:19:41.575Z,0.60
2022-09-15T14:25:11.157Z,1.10
2022-09-15T14:30:48.859Z,0.80
2022-09-15T14:35:51.914Z,0.90
2022-09-15T14:40:59.434Z,0.60
2022-09-15T14:46:14.871Z,0.70
2022-09-15T14:51:25.220Z,0.80
2022-09-15T14:56:36.601Z,0.90
2022-09-15T15:01:57.377Z,0.70
2022-09-15T15:07:09.861Z,0.50
2022-09-15T15:12:37.127Z,0.70
2022-09-15T15:17:55.086Z,0.60
2022-09-15T15:23:25.496Z,0.70
2022-09-15T15:28:36.587Z,0.50
2022-09-15T15:33:53.263Z,0.80
2022-09-15T15:39:04.936Z,0.70
2022-09-15T15:44:14.108Z,0.70
2022-09-15T15:49:20.903Z,0.60
2022-09-15T15:54:25.841Z,0.50
2022-09-15T15:59:28.895Z,2.70
2022-09-15T16:04:37.800Z,0.90
2022-09-15T16:10:02.325Z,0.90
2022-09-15T16:15:21.048Z,0.60
2022-09-15T16:20:28.251Z,0.60
2022-09-15T16:25:52.515Z,0.90
2022-09-15T16:31:10.190Z,1.10
2022-09-15T16:36:39.234Z,1.30
2022-09-15T16:41:42.552Z,1.10
2022-09-15T16:46:53.990Z,0.70
2022-09-15T16:51:57.318Z,1.80
2022-09-15T16:57:19.684Z,1.10
2022-09-15T17:02:27.637Z,1.30
2022-09-15T17:07:39.619Z,4.70
2022-09-15T17:12:43.227Z,3.10
2022-09-15T17:18:15.726Z,1.60
2022-09-15T17:23:27.582Z,1.10
2022-09-15T17:28:38.924Z,0.80
2022-09-15T17:33:43.294Z,0.60
2022-09-15T17:39:06.867Z,0.90
2022-09-15T17:44:16.098Z,1.30
2022-09-15T17:49:30.975Z,1.00
2022-09-15T17:54:34.294Z,1.20
2022-09-15T17:59:40.534Z,1.40
2022-09-15T18:04:46.259Z,2.20
2022-09-15T18:10:00.994Z,1.90
2022-09-15T18:15:10.441Z,1.70
2022-09-15T18:20:20.039Z,3.40
2022-09-15T18:25:27.461Z,1.30
2022-09-15T18:30:42.422Z,2.20
2022-09-15T18:35:48.019Z,5.80
2022-09-15T18:40:55.483Z,6.50
2022-09-15T18:46:01.367Z,10.80
2022-09-15T18:51:50.625Z,7.70
2022-09-15T18:57:09.380Z,8.30
2022-09-15T19:02:17.949Z,5.40
2022-09-15T19:07:24.078Z,5.10
2022-09-15T19:12:32.857Z,3.70
2022-09-15T19:17:43.074Z,2.20
2022-09-15T19:22:51.534Z,1.50
2022-09-15T19:27:57.253Z,1.90
2022-09-15T19:33:02.552Z,1.60
2022-09-15T19:38:06.006Z,1.80
2022-09-15T19:43:12.268Z,1.30
2022-09-15T19:48:45.666Z,1.80
2022-09-15T19:53:56.642Z,1.90
2022-09-15T19:59:05.814Z,1.70
2022-09-15T20:09:36.374Z,1.70
2022-09-15T20:14:42.904Z,1.50
2022-09-15T20:19:48.674Z,1.70
2022-09-15T20:24:52.091Z,1.90
2022-09-15T20:29:57.480Z,1.90
2022-09-15T20:35:17.263Z,1.90
2022-09-15T20:40:46.079Z,1.60
2022-09-15T20:46:05.216Z,1.40
2022-09-15T20:51:28.277Z,1.70
2022-09-15T20:56:46.710Z,2.10
2022-09-15T21:02:06.187Z,1.70
2022-09-15T21:07:15.457Z,1.50
2022-09-15T21:12:25.069Z,1.80
2022-09-15T21:17:29.239Z,1.70
2022-09-15T21:22:42.486Z,1.90
2022-09-15T21:27:47.004Z,1.90
2022-09-15T21:32:59.515Z,1.40
2022-09-15T21:38:03.076Z,1.20
2022-09-15T21:43:10.669Z,2.20
2022-09-15T21:48:14.516Z,1.60
2022-09-15T21:53:21.119Z,1.50
2022-09-15T21:58:42.179Z,1.60
2022-09-15T22:04:07.352Z,1.50
2022-09-15T22:09:48.573Z,1.30
2022-09-15T22:14:52.309Z,1.50
2022-09-15T22:19:55.700Z,1.30
2022-09-15T22:24:59.259Z,1.80
2022-09-15T22:30:02.863Z,2.00
2022-09-15T22:35:35.154Z,1.60
2022-09-15T22:41:05.161Z,1.60
2022-09-15T22:46:31.060Z,1.40
2022-09-15T22:51:50.075Z,1.20
2022-09-15T22:56:53.445Z,1.00
2022-09-15T23:01:56.792Z,1.20
2022-09-15T23:07:12.730Z,1.30
2022-09-15T23:12:19.416Z,1.30
2022-09-15T23:17:27.554Z,1.40
2022-09-15T23:22:39.975Z,1.40
2022-09-15T23:27:46.654Z,1.30
2022-09-15T23:32:55.414Z,1.70
2022-09-15T23:38:02.163Z,1.40
2022-09-15T23:43:33.304Z,1.40
2022-09-15T23:48:39.845Z,1.40
2022-09-15T23:54:59.471Z,1.70
